sensor_id;sensor_type;location;lat;lon;timestamp;pressure;altitude;pressure_sealevel;temperature
71807;BMP280;59655;42.590;23.364;2023-12-20T00:00:36;91654.47;;;2.38
71807;BMP280;59655;42.590;23.364;2023-12-20T00:03:02;91655.63;;;2.37
71807;BMP280;59655;42.590;23.364;2023-12-20T00:45:47;91611.31;;;2.06
71807;BMP280;59655;42.590;23.364;2023-12-20T00:48:12;91605.38;;;2.05
71807;BMP280;59655;42.590;23.364;2023-12-20T00:50:38;91598.22;;;2.06
71807;BMP280;59655;42.590;23.364;2023-12-20T00:53:03;91597.28;;;2.03
71807;BMP280;59655;42.590;23.364;2023-12-20T00:55:28;91599.91;;;2.03
71807;BMP280;59655;42.590;23.364;2023-12-20T00:57:54;91598.44;;;2.02
71807;BMP280;59655;42.590;23.364;2023-12-20T01:00:19;91590.34;;;2.00
71807;BMP280;59655;42.590;23.364;2023-12-20T01:02:44;91591.06;;;2.01
71807;BMP280;59655;42.590;23.364;2023-12-20T01:05:11;91589.19;;;2.01
71807;BMP280;59655;42.590;23.364;2023-12-20T01:07:37;91582.03;;;2.02
71807;BMP280;59655;42.590;23.364;2023-12-20T01:10:02;91578.22;;;2.03
71807;BMP280;59655;42.590;23.364;2023-12-20T01:12:28;91576.56;;;1.99
71807;BMP280;59655;42.590;23.364;2023-12-20T01:14:53;91570.13;;;2.01
71807;BMP280;59655;42.590;23.364;2023-12-20T01:17:19;91571.56;;;2.02
71807;BMP280;59655;42.590;23.364;2023-12-20T01:19:44;91573.72;;;2.03
71807;BMP280;59655;42.590;23.364;2023-12-20T01:22:09;91563.25;;;2.03
71807;BMP280;59655;42.590;23.364;2023-12-20T01:24:34;91561.59;;;2.00
71807;BMP280;59655;42.590;23.364;2023-12-20T01:27:00;91557.78;;;2.01
71807;BMP280;59655;42.590;23.364;2023-12-20T01:29:25;91548.28;;;2.04
71807;BMP280;59655;42.590;23.364;2023-12-20T01:31:50;91544.00;;;2.06
71807;BMP280;59655;42.590;23.364;2023-12-20T01:34:16;91548.28;;;2.09
71807;BMP280;59655;42.590;23.364;2023-12-20T01:36:42;91546.38;;;2.10
71807;BMP280;59655;42.590;23.364;2023-12-20T01:39:07;91536.88;;;2.07
71807;BMP280;59655;42.590;23.364;2023-12-20T01:41:33;91531.66;;;2.07
71807;BMP280;59655;42.590;23.364;2023-12-20T01:43:58;91532.81;;;2.06
71807;BMP280;59655;42.590;23.364;2023-12-20T01:46:24;91527.81;;;2.02
71807;BMP280;59655;42.590;23.364;2023-12-20T01:48:49;91509.03;;;2.04
71807;BMP280;59655;42.590;23.364;2023-12-20T01:51:15;91514.72;;;2.02
71807;BMP280;59655;42.590;23.364;2023-12-20T01:53:41;91518.06;;;1.97
71807;BMP280;59655;42.590;23.364;2023-12-20T01:56:07;91508.56;;;1.99
71807;BMP280;59655;42.590;23.364;2023-12-20T01:58:33;91499.50;;;2.01
71807;BMP280;59655;42.590;23.364;2023-12-20T02:00:59;91493.56;;;2.00
71807;BMP280;59655;42.590;23.364;2023-12-20T02:03:24;91496.88;;;2.01
71807;BMP280;59655;42.590;23.364;2023-12-20T02:05:50;91495.22;;;1.97
71807;BMP280;59655;42.590;23.364;2023-12-20T02:08:15;91499.25;;;1.98
71807;BMP280;59655;42.590;23.364;2023-12-20T02:10:40;91486.19;;;1.98
71807;BMP280;59655;42.590;23.364;2023-12-20T02:13:07;91492.59;;;1.92
71807;BMP280;59655;42.590;23.364;2023-12-20T02:15:32;91488.31;;;1.94
71807;BMP280;59655;42.590;23.364;2023-12-20T02:17:57;91479.53;;;1.97
71807;BMP280;59655;42.590;23.364;2023-12-20T02:20:23;91481.44;;;2.03
71807;BMP280;59655;42.590;23.364;2023-12-20T02:22:48;91480.97;;;2.04
71807;BMP280;59655;42.590;23.364;2023-12-20T02:25:14;91482.63;;;2.02
71807;BMP280;59655;42.590;23.364;2023-12-20T02:27:39;91481.19;;;2.01
71807;BMP280;59655;42.590;23.364;2023-12-20T02:30:05;91469.31;;;1.99
71807;BMP280;59655;42.590;23.364;2023-12-20T02:32:31;91471.94;;;1.99
71807;BMP280;59655;42.590;23.364;2023-12-20T02:34:57;91462.88;;;2.01
71807;BMP280;59655;42.590;23.364;2023-12-20T02:37:23;91472.88;;;1.96
71807;BMP280;59655;42.590;23.364;2023-12-20T02:39:48;91463.13;;;1.97
71807;BMP280;59655;42.590;23.364;2023-12-20T02:42:14;91455.75;;;1.90
71807;BMP280;59655;42.590;23.364;2023-12-20T02:44:39;91454.78;;;1.93
71807;BMP280;59655;42.590;23.364;2023-12-20T02:47:04;91451.94;;;1.96
71807;BMP280;59655;42.590;23.364;2023-12-20T02:49:30;91450.06;;;1.97
71807;BMP280;59655;42.590;23.364;2023-12-20T02:51:55;91442.22;;;1.97
71807;BMP280;59655;42.590;23.364;2023-12-20T02:54:21;91441.97;;;1.89
71807;BMP280;59655;42.590;23.364;2023-12-20T02:56:46;91446.22;;;1.92
71807;BMP280;59655;42.590;23.364;2023-12-20T02:59:12;91446.94;;;1.93
71807;BMP280;59655;42.590;23.364;2023-12-20T03:01:44;91436.97;;;1.91
71807;BMP280;59655;42.590;23.364;2023-12-20T03:04:10;91441.00;;;1.92
71807;BMP280;59655;42.590;23.364;2023-12-20T03:06:35;91449.34;;;1.85
71807;BMP280;59655;42.590;23.364;2023-12-20T03:09:01;91437.22;;;1.82
71807;BMP280;59655;42.590;23.364;2023-12-20T03:11:27;91450.53;;;1.84
71807;BMP280;59655;42.590;23.364;2023-12-20T03:13:52;91441.72;;;1.87
71807;BMP280;59655;42.590;23.364;2023-12-20T03:16:18;91441.72;;;1.87
71807;BMP280;59655;42.590;23.364;2023-12-20T03:18:43;91445.53;;;1.86
71807;BMP280;59655;42.590;23.364;2023-12-20T03:21:09;91437.22;;;1.88
71807;BMP280;59655;42.590;23.364;2023-12-20T03:23:34;91447.44;;;1.91
71807;BMP280;59655;42.590;23.364;2023-12-20T03:26:00;91439.81;;;1.93
71807;BMP280;59655;42.590;23.364;2023-12-20T03:28:26;91440.75;;;1.90
71807;BMP280;59655;42.590;23.364;2023-12-20T03:30:52;91439.34;;;1.89
71807;BMP280;59655;42.590;23.364;2023-12-20T03:33:17;91428.41;;;1.91
71807;BMP280;59655;42.590;23.364;2023-12-20T03:35:42;91430.53;;;1.81
71807;BMP280;59655;42.590;23.364;2023-12-20T03:38:08;91427.22;;;1.81
71807;BMP280;59655;42.590;23.364;2023-12-20T03:40:33;91421.75;;;1.78
71807;BMP280;59655;42.590;23.364;2023-12-20T03:42:59;91413.91;;;1.78
71807;BMP280;59655;42.590;23.364;2023-12-20T03:45:24;91423.91;;;1.80
71807;BMP280;59655;42.590;23.364;2023-12-20T03:47:50;91432.91;;;1.79
71807;BMP280;59655;42.590;23.364;2023-12-20T03:50:20;91419.84;;;1.79
71807;BMP280;59655;42.590;23.364;2023-12-20T03:52:45;91414.84;;;1.81
71807;BMP280;59655;42.590;23.364;2023-12-20T03:55:11;91420.31;;;1.83
71807;BMP280;59655;42.590;23.364;2023-12-20T03:57:36;91415.81;;;1.78
71807;BMP280;59655;42.590;23.364;2023-12-20T04:00:02;91415.31;;;1.79
71807;BMP280;59655;42.590;23.364;2023-12-20T04:02:27;91405.56;;;1.69
71807;BMP280;59655;42.590;23.364;2023-12-20T04:04:52;91419.81;;;1.68
71807;BMP280;59655;42.590;23.364;2023-12-20T04:07:18;91413.66;;;1.71
71807;BMP280;59655;42.590;23.364;2023-12-20T04:09:43;91409.84;;;1.72
71807;BMP280;59655;42.590;23.364;2023-12-20T04:12:08;91418.41;;;1.72
71807;BMP280;59655;42.590;23.364;2023-12-20T04:14:34;91408.66;;;1.62
71807;BMP280;59655;42.590;23.364;2023-12-20T04:16:59;91400.81;;;1.67
71807;BMP280;59655;42.590;23.364;2023-12-20T04:19:24;91397.28;;;1.70
71807;BMP280;59655;42.590;23.364;2023-12-20T04:21:50;91400.59;;;1.71
71807;BMP280;59655;42.590;23.364;2023-12-20T04:24:15;91397.28;;;1.70
71807;BMP280;59655;42.590;23.364;2023-12-20T04:26:40;91391.78;;;1.68
71807;BMP280;59655;42.590;23.364;2023-12-20T04:29:06;91394.63;;;1.65
71807;BMP280;59655;42.590;23.364;2023-12-20T04:31:31;91399.84;;;1.59
71807;BMP280;59655;42.590;23.364;2023-12-20T04:33:56;91393.91;;;1.58
71807;BMP280;59655;42.590;23.364;2023-12-20T04:36:22;91379.88;;;1.62
71807;BMP280;59655;42.590;23.364;2023-12-20T04:38:47;91389.16;;;1.63
71807;BMP280;59655;42.590;23.364;2023-12-20T04:41:12;91384.88;;;1.65
71807;BMP280;59655;42.590;23.364;2023-12-20T04:43:41;91383.47;;;1.70
71807;BMP280;59655;42.590;23.364;2023-12-20T04:46:06;91373.00;;;1.70
71807;BMP280;59655;42.590;23.364;2023-12-20T04:48:31;91366.84;;;1.73
71807;BMP280;59655;42.590;23.364;2023-12-20T04:50:57;91367.53;;;1.73
71807;BMP280;59655;42.590;23.364;2023-12-20T04:53:22;91371.81;;;1.71
71807;BMP280;59655;42.590;23.364;2023-12-20T04:55:48;91364.44;;;1.69
71807;BMP280;59655;42.590;23.364;2023-12-20T04:58:13;91364.47;;;1.75
71807;BMP280;59655;42.590;23.364;2023-12-20T05:00:38;91363.28;;;1.76
71807;BMP280;59655;42.590;23.364;2023-12-20T05:03:04;91367.56;;;1.79
71807;BMP280;59655;42.590;23.364;2023-12-20T05:05:29;91361.63;;;1.84
71807;BMP280;59655;42.590;23.364;2023-12-20T05:07:55;91359.25;;;1.81
71807;BMP280;59655;42.590;23.364;2023-12-20T05:10:20;91359.94;;;1.70
71807;BMP280;59655;42.590;23.364;2023-12-20T05:12:45;91359.00;;;1.73
71807;BMP280;59655;42.590;23.364;2023-12-20T05:15:10;91355.19;;;1.68
71807;BMP280;59655;42.590;23.364;2023-12-20T05:17:36;91359.44;;;1.66
71807;BMP280;59655;42.590;23.364;2023-12-20T05:20:01;91349.97;;;1.68
71807;BMP280;59655;42.590;23.364;2023-12-20T05:22:27;91345.22;;;1.67
71807;BMP280;59655;42.590;23.364;2023-12-20T05:24:52;91341.16;;;1.66
71807;BMP280;59655;42.590;23.364;2023-12-20T05:27:18;91339.00;;;1.70
71807;BMP280;59655;42.590;23.364;2023-12-20T05:29:43;91335.22;;;1.71
71807;BMP280;59655;42.590;23.364;2023-12-20T05:32:09;91333.56;;;1.73
71807;BMP280;59655;42.590;23.364;2023-12-20T05:34:35;91335.47;;;1.67
71807;BMP280;59655;42.590;23.364;2023-12-20T05:37:00;91323.56;;;1.72
71807;BMP280;59655;42.590;23.364;2023-12-20T05:39:26;91330.00;;;1.71
71807;BMP280;59655;42.590;23.364;2023-12-20T05:41:52;91324.75;;;1.71
71807;BMP280;59655;42.590;23.364;2023-12-20T05:44:17;91322.63;;;1.75
71807;BMP280;59655;42.590;23.364;2023-12-20T05:46:42;91325.00;;;1.73
71807;BMP280;59655;42.590;23.364;2023-12-20T05:49:08;91322.38;;;1.67
71807;BMP280;59655;42.590;23.364;2023-12-20T05:51:34;91320.94;;;1.72
71807;BMP280;59655;42.590;23.364;2023-12-20T05:53:59;91328.56;;;1.70
71807;BMP280;59655;42.590;23.364;2023-12-20T05:56:24;91323.09;;;1.62
71807;BMP280;59655;42.590;23.364;2023-12-20T05:58:50;91325.97;;;1.64
71807;BMP280;59655;42.590;23.364;2023-12-20T06:01:15;91315.25;;;1.56
71807;BMP280;59655;42.590;23.364;2023-12-20T06:03:44;91312.16;;;1.58
71807;BMP280;59655;42.590;23.364;2023-12-20T06:06:11;91304.81;;;1.56
71807;BMP280;59655;42.590;23.364;2023-12-20T06:08:36;91293.63;;;1.62
71807;BMP280;59655;42.590;23.364;2023-12-20T06:11:01;91300.28;;;1.63
71807;BMP280;59655;42.590;23.364;2023-12-20T06:13:27;91302.69;;;1.66
71807;BMP280;59655;42.590;23.364;2023-12-20T06:15:54;91318.34;;;1.66
71807;BMP280;59655;42.590;23.364;2023-12-20T06:18:20;91316.69;;;1.69
71807;BMP280;59655;42.590;23.364;2023-12-20T06:20:46;91314.06;;;1.74
71807;BMP280;59655;42.590;23.364;2023-12-20T06:23:11;91309.56;;;1.75
71807;BMP280;59655;42.590;23.364;2023-12-20T06:25:36;91316.47;;;1.78
71807;BMP280;59655;42.590;23.364;2023-12-20T06:28:01;91307.66;;;1.81
71807;BMP280;59655;42.590;23.364;2023-12-20T06:30:27;91309.09;;;1.82
71807;BMP280;59655;42.590;23.364;2023-12-20T06:32:53;91309.31;;;1.84
71807;BMP280;59655;42.590;23.364;2023-12-20T06:35:19;91311.69;;;1.82
71807;BMP280;59655;42.590;23.364;2023-12-20T06:37:44;91303.84;;;1.82
71807;BMP280;59655;42.590;23.364;2023-12-20T06:40:10;91310.50;;;1.83
71807;BMP280;59655;42.590;23.364;2023-12-20T06:42:36;91306.00;;;1.84
71807;BMP280;59655;42.590;23.364;2023-12-20T06:45:02;91307.88;;;1.83
71807;BMP280;59655;42.590;23.364;2023-12-20T06:47:27;91303.34;;;1.89
71807;BMP280;59655;42.590;23.364;2023-12-20T06:49:52;91298.81;;;1.90
71807;BMP280;59655;42.590;23.364;2023-12-20T06:52:18;91296.72;;;1.88
71807;BMP280;59655;42.590;23.364;2023-12-20T06:54:43;91291.69;;;1.90
71807;BMP280;59655;42.590;23.364;2023-12-20T06:57:09;91295.97;;;1.93
71807;BMP280;59655;42.590;23.364;2023-12-20T06:59:41;91292.41;;;1.91
71807;BMP280;59655;42.590;23.364;2023-12-20T07:02:08;91289.31;;;1.98
71807;BMP280;59655;42.590;23.364;2023-12-20T07:04:33;91281.69;;;2.00
71807;BMP280;59655;42.590;23.364;2023-12-20T07:06:58;91282.38;;;2.06
71807;BMP280;59655;42.590;23.364;2023-12-20T07:09:25;91285.47;;;2.05
71807;BMP280;59655;42.590;23.364;2023-12-20T07:11:51;91285.00;;;2.06
71807;BMP280;59655;42.590;23.364;2023-12-20T07:14:16;91289.06;;;2.07
71807;BMP280;59655;42.590;23.364;2023-12-20T07:16:42;91278.13;;;2.09
71807;BMP280;59655;42.590;23.364;2023-12-20T07:19:07;91280.25;;;2.05
71807;BMP280;59655;42.590;23.364;2023-12-20T07:21:32;91273.38;;;2.07
71807;BMP280;59655;42.590;23.364;2023-12-20T07:23:58;91274.75;;;2.14
71807;BMP280;59655;42.590;23.364;2023-12-20T07:26:23;91275.97;;;2.18
71807;BMP280;59655;42.590;23.364;2023-12-20T07:28:49;91269.50;;;2.25
71807;BMP280;59655;42.590;23.364;2023-12-20T07:31:18;91258.09;;;2.28
71807;BMP280;59655;42.590;23.364;2023-12-20T07:33:43;91263.56;;;2.30
71807;BMP280;59655;42.590;23.364;2023-12-20T07:36:09;91272.13;;;2.31
71807;BMP280;59655;42.590;23.364;2023-12-20T07:38:34;91262.13;;;2.29
71807;BMP280;59655;42.590;23.364;2023-12-20T07:41:00;91274.22;;;2.32
71807;BMP280;59655;42.590;23.364;2023-12-20T07:43:25;91266.59;;;2.34
71807;BMP280;59655;42.590;23.364;2023-12-20T07:45:50;91264.22;;;2.36
71807;BMP280;59655;42.590;23.364;2023-12-20T07:48:16;91262.78;;;2.41
71807;BMP280;59655;42.590;23.364;2023-12-20T07:50:41;91261.59;;;2.42
71807;BMP280;59655;42.590;23.364;2023-12-20T07:53:07;91266.34;;;2.44
71807;BMP280;59655;42.590;23.364;2023-12-20T07:55:33;91266.81;;;2.48
71807;BMP280;59655;42.590;23.364;2023-12-20T07:57:59;91267.75;;;2.50
71807;BMP280;59655;42.590;23.364;2023-12-20T08:00:25;91262.97;;;2.54
71807;BMP280;59655;42.590;23.364;2023-12-20T08:02:50;91266.53;;;2.57
71807;BMP280;59655;42.590;23.364;2023-12-20T08:05:15;91262.94;;;2.60
71807;BMP280;59655;42.590;23.364;2023-12-20T08:07:41;91259.38;;;2.63
71807;BMP280;59655;42.590;23.364;2023-12-20T08:10:06;91249.31;;;2.67
71807;BMP280;59655;42.590;23.364;2023-12-20T08:12:32;91245.72;;;2.70
71807;BMP280;59655;42.590;23.364;2023-12-20T08:14:58;91251.91;;;2.73
71807;BMP280;59655;42.590;23.364;2023-12-20T08:17:24;91261.91;;;2.74
71807;BMP280;59655;42.590;23.364;2023-12-20T08:19:49;91259.53;;;2.76
71807;BMP280;59655;42.590;23.364;2023-12-20T08:22:14;91252.38;;;2.77
71807;BMP280;59655;42.590;23.364;2023-12-20T08:24:40;91245.44;;;2.79
71807;BMP280;59655;42.590;23.364;2023-12-20T08:27:05;91246.19;;;2.80
71807;BMP280;59655;42.590;23.364;2023-12-20T08:29:30;91247.81;;;2.83
71807;BMP280;59655;42.590;23.364;2023-12-20T08:31:56;91238.03;;;2.89
71807;BMP280;59655;42.590;23.364;2023-12-20T08:34:22;91236.28;;;2.97
71807;BMP280;59655;42.590;23.364;2023-12-20T08:36:50;91224.31;;;3.08
71807;BMP280;59655;42.590;23.364;2023-12-20T08:39:16;91212.84;;;3.11
71807;BMP280;59655;42.590;23.364;2023-12-20T08:41:42;91225.47;;;3.12
71807;BMP280;59655;42.590;23.364;2023-12-20T08:44:08;91213.81;;;3.13
71807;BMP280;59655;42.590;23.364;2023-12-20T08:46:33;91208.31;;;3.17
71807;BMP280;59655;42.590;23.364;2023-12-20T08:48:59;91218.53;;;3.21
71807;BMP280;59655;42.590;23.364;2023-12-20T08:51:25;91211.59;;;3.23
71807;BMP280;59655;42.590;23.364;2023-12-20T08:53:51;91205.88;;;3.25
71807;BMP280;59655;42.590;23.364;2023-12-20T08:56:16;91212.66;;;3.33
71807;BMP280;59655;42.590;23.364;2023-12-20T08:58:43;91212.19;;;3.35
71807;BMP280;59655;42.590;23.364;2023-12-20T09:01:08;91201.19;;;3.42
71807;BMP280;59655;42.590;23.364;2023-12-20T09:03:34;91193.28;;;3.48
71807;BMP280;59655;42.590;23.364;2023-12-20T09:06:00;91188.25;;;3.50
71807;BMP280;59655;42.590;23.364;2023-12-20T09:08:25;91179.88;;;3.51
71807;BMP280;59655;42.590;23.364;2023-12-20T09:10:51;91172.72;;;3.52
71807;BMP280;59655;42.590;23.364;2023-12-20T09:13:16;91173.63;;;3.54
71807;BMP280;59655;42.590;23.364;2023-12-20T09:15:41;91168.81;;;3.58
71807;BMP280;59655;42.590;23.364;2023-12-20T09:18:07;91158.06;;;3.62
71807;BMP280;59655;42.590;23.364;2023-12-20T09:20:32;91161.59;;;3.65
71807;BMP280;59655;42.590;23.364;2023-12-20T09:22:58;91161.56;;;3.70
71807;BMP280;59655;42.590;23.364;2023-12-20T09:25:23;91147.25;;;3.71
71807;BMP280;59655;42.590;23.364;2023-12-20T09:27:49;91152.22;;;3.75
71807;BMP280;59655;42.590;23.364;2023-12-20T09:30:14;91133.06;;;3.80
71807;BMP280;59655;42.590;23.364;2023-12-20T09:32:39;91126.13;;;3.83
71807;BMP280;59655;42.590;23.364;2023-12-20T09:35:05;91112.94;;;3.88
71807;BMP280;59655;42.590;23.364;2023-12-20T09:37:31;91113.38;;;3.92
71807;BMP280;59655;42.590;23.364;2023-12-20T09:39:57;91117.13;;;3.97
71807;BMP280;59655;42.590;23.364;2023-12-20T09:45:01;91094.84;;;4.04
71807;BMP280;59655;42.590;23.364;2023-12-20T09:47:28;91096.47;;;4.07
71807;BMP280;59655;42.590;23.364;2023-12-20T09:49:54;91100.25;;;4.11
71807;BMP280;59655;42.590;23.364;2023-12-20T09:52:20;91105.19;;;4.15
71807;BMP280;59655;42.590;23.364;2023-12-20T09:54:49;91096.56;;;4.20
71807;BMP280;59655;42.590;23.364;2023-12-20T09:57:15;91098.38;;;4.25
71807;BMP280;59655;42.590;23.364;2023-12-20T09:59:40;91100.00;;;4.28
71807;BMP280;59655;42.590;23.364;2023-12-20T10:02:12;91083.47;;;4.33
71807;BMP280;59655;42.590;23.364;2023-12-20T10:04:44;91074.59;;;4.36
71807;BMP280;59655;42.590;23.364;2023-12-20T10:07:11;91075.53;;;4.39
71807;BMP280;59655;42.590;23.364;2023-12-20T10:09:36;91059.56;;;4.37
71807;BMP280;59655;42.590;23.364;2023-12-20T10:12:02;91062.38;;;4.39
71807;BMP280;59655;42.590;23.364;2023-12-20T10:14:28;91061.69;;;4.38
71807;BMP280;59655;42.590;23.364;2023-12-20T10:16:53;91063.09;;;4.39
71807;BMP280;59655;42.590;23.364;2023-12-20T10:19:19;91044.91;;;4.41
71807;BMP280;59655;42.590;23.364;2023-12-20T10:21:45;91046.63;;;4.39
71807;BMP280;59655;42.590;23.364;2023-12-20T10:24:17;91050.66;;;4.40
71807;BMP280;59655;42.590;23.364;2023-12-20T10:26:42;91047.34;;;4.39
71807;BMP280;59655;42.590;23.364;2023-12-20T10:29:07;91048.22;;;4.42
71807;BMP280;59655;42.590;23.364;2023-12-20T10:31:34;91043.31;;;4.38
71807;BMP280;59655;42.590;23.364;2023-12-20T10:34:00;91043.19;;;4.44
71807;BMP280;59655;42.590;23.364;2023-12-20T10:36:29;91033.41;;;4.45
71807;BMP280;59655;42.590;23.364;2023-12-20T10:38:55;91043.69;;;4.42
71807;BMP280;59655;42.590;23.364;2023-12-20T10:41:32;91030.38;;;4.40
71807;BMP280;59655;42.590;23.364;2023-12-20T10:44:01;91030.88;;;4.39
71807;BMP280;59655;42.590;23.364;2023-12-20T10:46:29;91017.25;;;4.40
71807;BMP280;59655;42.590;23.364;2023-12-20T10:48:55;91010.47;;;4.45
71807;BMP280;59655;42.590;23.364;2023-12-20T10:51:22;91009.75;;;4.45
71807;BMP280;59655;42.590;23.364;2023-12-20T10:53:49;91017.84;;;4.47
71807;BMP280;59655;42.590;23.364;2023-12-20T10:56:16;91010.78;;;4.55
71807;BMP280;59655;42.590;23.364;2023-12-20T10:58:43;91015.06;;;4.58
71807;BMP280;59655;42.590;23.364;2023-12-20T11:01:09;91001.59;;;4.61
71807;BMP280;59655;42.590;23.364;2023-12-20T11:03:36;91003.91;;;4.65
71807;BMP280;59655;42.590;23.364;2023-12-20T11:14:23;90978.19;;;4.77
71807;BMP280;59655;42.590;23.364;2023-12-20T11:16:50;90979.06;;;4.79
71807;BMP280;59655;42.590;23.364;2023-12-20T11:19:16;90985.25;;;4.82
71807;BMP280;59655;42.590;23.364;2023-12-20T11:21:42;90975.66;;;4.85
71807;BMP280;59655;42.590;23.364;2023-12-20T11:24:07;90961.78;;;4.84
71807;BMP280;59655;42.590;23.364;2023-12-20T11:26:34;90962.19;;;4.88
71807;BMP280;59655;42.590;23.364;2023-12-20T11:32:01;90955.44;;;4.93
71807;BMP280;59655;42.590;23.364;2023-12-20T11:34:27;90942.88;;;4.99
71807;BMP280;59655;42.590;23.364;2023-12-20T11:37:01;90940.94;;;4.99
71807;BMP280;59655;42.590;23.364;2023-12-20T11:39:28;90937.81;;;5.01
71807;BMP280;59655;42.590;23.364;2023-12-20T11:41:56;90934.00;;;5.02
71807;BMP280;59655;42.590;23.364;2023-12-20T11:44:22;90932.97;;;5.05
71807;BMP280;59655;42.590;23.364;2023-12-20T11:46:48;90935.28;;;5.09
71807;BMP280;59655;42.590;23.364;2023-12-20T11:49:13;90928.50;;;5.13
71807;BMP280;59655;42.590;23.364;2023-12-20T11:51:42;90920.78;;;5.15
71807;BMP280;59655;42.590;23.364;2023-12-20T11:54:07;90913.63;;;5.16
71807;BMP280;59655;42.590;23.364;2023-12-20T11:56:35;90916.66;;;5.20
71807;BMP280;59655;42.590;23.364;2023-12-20T11:59:00;90911.41;;;5.20
71807;BMP280;59655;42.590;23.364;2023-12-20T12:01:26;90907.88;;;5.17
71807;BMP280;59655;42.590;23.364;2023-12-20T12:04:05;90901.19;;;5.16
71807;BMP280;59655;42.590;23.364;2023-12-20T12:06:31;90888.25;;;5.18
71807;BMP280;59655;42.590;23.364;2023-12-20T12:08:56;90890.88;;;5.18
71807;BMP280;59655;42.590;23.364;2023-12-20T12:11:22;90884.91;;;5.18
71807;BMP280;59655;42.590;23.364;2023-12-20T12:13:48;90877.53;;;5.16
71807;BMP280;59655;42.590;23.364;2023-12-20T12:16:17;90886.13;;;5.17
71807;BMP280;59655;42.590;23.364;2023-12-20T12:18:43;90889.47;;;5.17
71807;BMP280;59655;42.590;23.364;2023-12-20T12:21:09;90880.34;;;5.18
71807;BMP280;59655;42.590;23.364;2023-12-20T12:23:35;90889.66;;;5.19
71807;BMP280;59655;42.590;23.364;2023-12-20T12:26:03;90885.59;;;5.18
71807;BMP280;59655;42.590;23.364;2023-12-20T12:28:29;90874.59;;;5.20
71807;BMP280;59655;42.590;23.364;2023-12-20T12:31:00;90871.47;;;5.21
71807;BMP280;59655;42.590;23.364;2023-12-20T12:33:26;90878.13;;;5.22
71807;BMP280;59655;42.590;23.364;2023-12-20T12:35:52;90872.34;;;5.24
71807;BMP280;59655;42.590;23.364;2023-12-20T12:38:21;90870.94;;;5.23
71807;BMP280;59655;42.590;23.364;2023-12-20T12:40:46;90863.25;;;5.25
71807;BMP280;59655;42.590;23.364;2023-12-20T12:43:12;90859.41;;;5.26
71807;BMP280;59655;42.590;23.364;2023-12-20T12:45:38;90858.69;;;5.26
71807;BMP280;59655;42.590;23.364;2023-12-20T12:48:04;90849.28;;;5.30
71807;BMP280;59655;42.590;23.364;2023-12-20T12:50:30;90845.94;;;5.30
71807;BMP280;59655;42.590;23.364;2023-12-20T12:52:56;90852.59;;;5.31
71807;BMP280;59655;42.590;23.364;2023-12-20T12:55:21;90854.19;;;5.34
71807;BMP280;59655;42.590;23.364;2023-12-20T12:57:46;90855.28;;;5.38
71807;BMP280;59655;42.590;23.364;2023-12-20T13:00:12;90857.41;;;5.40
71807;BMP280;59655;42.590;23.364;2023-12-20T13:02:39;90860.13;;;5.48
71807;BMP280;59655;42.590;23.364;2023-12-20T13:05:07;90861.34;;;5.47
71807;BMP280;59655;42.590;23.364;2023-12-20T13:07:33;90871.69;;;5.44
71807;BMP280;59655;42.590;23.364;2023-12-20T13:09:59;90859.34;;;5.39
71807;BMP280;59655;42.590;23.364;2023-12-20T13:12:24;90869.88;;;5.39
71807;BMP280;59655;42.590;23.364;2023-12-20T13:14:49;90863.19;;;5.38
71807;BMP280;59655;42.590;23.364;2023-12-20T13:17:15;90865.09;;;5.38
71807;BMP280;59655;42.590;23.364;2023-12-20T13:19:40;90852.66;;;5.38
71807;BMP280;59655;42.590;23.364;2023-12-20T13:22:05;90848.63;;;5.37
71807;BMP280;59655;42.590;23.364;2023-12-20T13:24:31;90848.13;;;5.39
71807;BMP280;59655;42.590;23.364;2023-12-20T13:26:57;90847.41;;;5.38
71807;BMP280;59655;42.590;23.364;2023-12-20T13:29:24;90854.09;;;5.39
71807;BMP280;59655;42.590;23.364;2023-12-20T13:31:49;90839.00;;;5.40
71807;BMP280;59655;42.590;23.364;2023-12-20T13:34:14;90846.19;;;5.39
71807;BMP280;59655;42.590;23.364;2023-12-20T13:36:43;90837.59;;;5.39
71807;BMP280;59655;42.590;23.364;2023-12-20T13:39:11;90828.47;;;5.40
71807;BMP280;59655;42.590;23.364;2023-12-20T13:41:36;90834.97;;;5.39
71807;BMP280;59655;42.590;23.364;2023-12-20T13:44:02;90835.47;;;5.37
71807;BMP280;59655;42.590;23.364;2023-12-20T13:46:28;90845.31;;;5.37
71807;BMP280;59655;42.590;23.364;2023-12-20T13:48:54;90844.19;;;5.32
71807;BMP280;59655;42.590;23.364;2023-12-20T13:51:19;90832.47;;;5.33
71807;BMP280;59655;42.590;23.364;2023-12-20T13:53:46;90833.66;;;5.32
71807;BMP280;59655;42.590;23.364;2023-12-20T13:56:11;90840.50;;;5.28
71807;BMP280;59655;42.590;23.364;2023-12-20T13:58:36;90838.41;;;5.34
71807;BMP280;59655;42.590;23.364;2023-12-20T14:01:02;90827.84;;;5.26
71807;BMP280;59655;42.590;23.364;2023-12-20T14:03:27;90825.91;;;5.27
71807;BMP280;59655;42.590;23.364;2023-12-20T14:05:52;90831.38;;;5.29
71807;BMP280;59655;42.590;23.364;2023-12-20T14:08:18;90835.34;;;5.22
71807;BMP280;59655;42.590;23.364;2023-12-20T14:10:43;90813.81;;;5.23
71807;BMP280;59655;42.590;23.364;2023-12-20T14:13:08;90816.81;;;5.28
71807;BMP280;59655;42.590;23.364;2023-12-20T14:15:34;90819.88;;;5.18
71807;BMP280;59655;42.590;23.364;2023-12-20T14:18:04;90819.19;;;5.18
71807;BMP280;59655;42.590;23.364;2023-12-20T14:20:31;90820.78;;;5.21
71807;BMP280;59655;42.590;23.364;2023-12-20T14:22:57;90811.69;;;5.22
71807;BMP280;59655;42.590;23.364;2023-12-20T14:25:22;90807.63;;;5.21
71807;BMP280;59655;42.590;23.364;2023-12-20T14:27:48;90808.84;;;5.20
71807;BMP280;59655;42.590;23.364;2023-12-20T14:30:13;90816.31;;;5.08
71807;BMP280;59655;42.590;23.364;2023-12-20T14:32:39;90812.75;;;5.06
71807;BMP280;59655;42.590;23.364;2023-12-20T14:35:05;90812.25;;;5.07
71807;BMP280;59655;42.590;23.364;2023-12-20T14:37:31;90809.13;;;5.09
71807;BMP280;59655;42.590;23.364;2023-12-20T14:39:57;90807.00;;;5.07
71807;BMP280;59655;42.590;23.364;2023-12-20T14:42:22;90807.09;;;5.01
71807;BMP280;59655;42.590;23.364;2023-12-20T14:44:47;90803.91;;;4.95
71807;BMP280;59655;42.590;23.364;2023-12-20T14:47:13;90807.78;;;4.94
71807;BMP280;59655;42.590;23.364;2023-12-20T14:49:40;90809.47;;;4.92
71807;BMP280;59655;42.590;23.364;2023-12-20T14:52:06;90814.03;;;4.91
71807;BMP280;59655;42.590;23.364;2023-12-20T14:54:31;90818.59;;;4.91